Time;durP1;ratioP1;P1;durP2;ratioP2;P2;SDS_P1;SDS_P2;PMS_P1;PMS_P2;Temp;Humidity;BMP_temperature;BMP_pressure;BME280_temperature;BME280_humidity;BME280_pressure;Samples;Min_cycle;Max_cycle;Signal;HPM_P1;HPM_P2
2022/01/15 00:01:21;;;;;;;10.85;7.82;;;;;;;6.50;52.49;101537.97;144992;626;6004;-81
2022/01/15 00:03:48;;;;;;;10.75;7.32;;;;;;;6.41;53.27;101524.53;144992;571;6004;-81
2022/01/15 00:06:14;;;;;;;11.02;7.82;;;;;;;6.51;51.98;101519.13;144992;586;6004;-82
2022/01/15 00:08:41;;;;;;;9.85;6.85;;;;;;;6.59;52.02;101517.00;144992;655;6004;-80
2022/01/15 00:11:09;;;;;;;9.40;6.90;;;;;;;6.77;51.91;101509.44;144992;568;6004;-82
2022/01/15 00:13:38;;;;;;;10.98;6.90;;;;;;;6.68;52.46;101517.53;144992;659;6004;-82
2022/01/15 00:16:09;;;;;;;8.40;6.60;;;;;;;6.52;52.14;101513.16;144992;586;6004;-82
2022/01/15 00:18:45;;;;;;;8.73;6.35;;;;;;;6.39;52.52;101514.13;144992;598;6004;-81
2022/01/15 00:21:13;;;;;;;11.25;7.25;;;;;;;6.39;52.58;101508.09;144992;571;6004;-81
2022/01/15 00:23:40;;;;;;;11.12;7.12;;;;;;;6.28;53.67;101510.94;144992;585;6004;-81
2022/01/15 00:26:07;;;;;;;10.15;7.03;;;;;;;6.19;53.88;101518.09;144992;573;6004;-81
2022/01/15 00:28:33;;;;;;;9.20;6.90;;;;;;;6.09;54.90;101521.81;144992;591;6004;-79
2022/01/15 00:30:59;;;;;;;9.48;7.10;;;;;;;6.01;53.92;101530.75;144992;598;6004;-81
2022/01/15 00:33:29;;;;;;;9.48;7.22;;;;;;;5.85;54.42;101536.62;144992;563;6004;-80
2022/01/15 00:35:57;;;;;;;10.95;7.30;;;;;;;5.92;54.02;101549.09;144992;594;6004;-81
2022/01/15 00:38:24;;;;;;;8.80;7.32;;;;;;;5.86;54.62;101564.19;144992;578;6004;-81
2022/01/15 00:40:51;;;;;;;10.98;7.62;;;;;;;5.70;56.85;101580.34;144992;602;6004;-79
2022/01/15 00:43:18;;;;;;;10.13;7.50;;;;;;;5.85;55.80;101569.22;144992;588;6005;-88
2022/01/15 00:45:45;;;;;;;11.10;8.65;;;;;;;5.99;54.39;101563.28;144992;697;6004;-80
2022/01/15 00:48:12;;;;;;;12.37;8.73;;;;;;;6.21;53.79;101555.19;144992;565;6004;-82
2022/01/15 00:50:39;;;;;;;11.57;8.30;;;;;;;6.25;54.04;101562.31;144992;578;6005;-82
2022/01/15 00:53:10;;;;;;;12.60;8.70;;;;;;;6.47;53.32;101558.44;144992;636;6004;-79
2022/01/15 00:55:37;;;;;;;13.38;9.30;;;;;;;6.51;54.04;101545.81;144992;623;6004;-81
2022/01/15 00:58:03;;;;;;;11.80;9.23;;;;;;;6.55;53.68;101544.28;144992;597;6005;-80
2022/01/15 01:00:30;;;;;;;14.55;11.40;;;;;;;6.68;53.08;101536.50;144992;588;6004;-80
2022/01/15 01:02:57;;;;;;;16.77;11.68;;;;;;;6.42;54.27;101534.06;144992;587;6004;-81
2022/01/15 01:05:23;;;;;;;15.15;12.10;;;;;;;6.50;53.51;101517.34;144992;586;6004;-80
2022/01/15 01:07:50;;;;;;;15.48;11.25;;;;;;;6.45;54.61;101521.34;144992;564;6004;-80
2022/01/15 01:20:05;;;;;;;12.23;8.52;;;;;;;6.56;53.69;101506.50;144992;582;6002;-81
2022/01/15 01:24:14;;;;;;;12.85;9.45;;;;;;;6.20;54.65;101501.81;144992;615;6002;-81
2022/01/15 01:26:56;;;;;;;12.35;9.35;;;;;;;6.24;54.52;101498.63;144992;628;6002;-81
2022/01/15 01:29:38;;;;;;;13.00;9.75;;;;;;;6.36;54.23;101495.88;144992;594;6002;-81
2022/01/15 01:34:50;;;;;;;13.80;9.90;;;;;;;6.24;54.67;101477.13;144992;602;6004;-80
2022/01/15 01:37:24;;;;;;;13.07;8.60;;;;;;;6.09;54.84;101478.00;144992;617;6004;-80
2022/01/15 01:39:56;;;;;;;11.05;8.27;;;;;;;6.04;55.25;101483.66;144992;584;6004;-79
2022/01/15 01:45:13;;;;;;;11.40;7.80;;;;;;;5.77;55.55;101469.19;144992;590;6002;-80
2022/01/15 01:47:42;;;;;;;10.82;7.30;;;;;;;5.70;55.94;101461.84;144992;563;6002;-80
2022/01/15 01:50:19;;;;;;;10.60;7.95;;;;;;;5.65;56.03;101465.84;144992;630;6002;-80
2022/01/15 01:52:51;;;;;;;10.57;7.93;;;;;;;5.79;55.28;101472.72;144992;615;6002;-80
2022/01/15 01:55:22;;;;;;;11.05;8.60;;;;;;;5.98;54.76;101474.78;144992;586;6002;-80
2022/01/15 01:58:03;;;;;;;11.48;8.95;;;;;;;6.17;54.50;101474.19;144992;565;6003;-80
2022/01/15 02:01:01;;;;;;;11.90;8.60;;;;;;;6.41;54.03;101479.03;144992;581;6002;-80
2022/01/15 02:03:28;;;;;;;15.05;9.80;;;;;;;6.67;53.55;101477.06;144992;615;6004;-82
2022/01/15 02:05:55;;;;;;;14.40;10.40;;;;;;;6.86;53.26;101486.75;144992;577;6004;-81
2022/01/15 02:08:21;;;;;;;14.93;10.57;;;;;;;6.89;53.13;101471.44;144993;592;6000;-79
2022/01/15 02:10:49;;;;;;;12.77;9.30;;;;;;;6.93;52.65;101475.94;144992;596;6002;-81
2022/01/15 02:13:16;;;;;;;14.65;9.20;;;;;;;6.94;52.72;101472.59;144993;621;6002;-80
2022/01/15 02:15:42;;;;;;;12.65;10.00;;;;;;;6.90;52.67;101479.28;144993;606;6002;-80
2022/01/15 02:18:09;;;;;;;13.57;9.68;;;;;;;6.83;52.87;101465.94;144993;569;6002;-81
2022/01/15 02:21:02;;;;;;;13.48;10.13;;;;;;;6.82;52.80;101477.91;144993;564;6002;-80
2022/01/15 02:23:34;;;;;;;13.10;9.13;;;;;;;6.66;54.07;101472.69;144993;660;6000;-80
2022/01/15 02:26:06;;;;;;;11.95;8.40;;;;;;;6.21;55.60;101470.09;144993;647;6002;-80
2022/01/15 02:28:39;;;;;;;12.02;8.68;;;;;;;5.71;56.93;101466.22;144993;603;6002;-80
2022/01/15 02:31:12;;;;;;;12.43;9.20;;;;;;;5.40;56.99;101469.44;144993;582;6002;-79
2022/01/15 02:33:43;;;;;;;13.23;9.70;;;;;;;5.54;56.48;101469.44;144993;590;6002;-80
2022/01/15 02:36:15;;;;;;;12.90;9.13;;;;;;;5.41;57.91;101471.25;144993;630;6002;-80
2022/01/15 02:38:43;;;;;;;13.30;9.10;;;;;;;5.43;57.72;101477.37;144992;582;6002;-80
2022/01/15 02:41:10;;;;;;;12.20;9.60;;;;;;;5.55;56.88;101468.63;144992;587;6002;-81
2022/01/15 02:43:53;;;;;;;13.60;9.57;;;;;;;5.46;57.55;101474.13;144992;572;6002;-80
2022/01/15 02:49:12;;;;;;;12.30;8.48;;;;;;;5.39;58.35;101469.34;144992;580;6000;-82
2022/01/15 02:51:39;;;;;;;12.52;8.60;;;;;;;5.33;58.50;101474.13;144992;612;6000;-82
2022/01/15 02:54:07;;;;;;;13.45;8.52;;;;;;;5.37;58.23;101471.84;144993;571;6000;-82
2022/01/15 02:56:36;;;;;;;13.15;8.70;;;;;;;5.42;57.54;101477.28;144993;625;6002;-82
2022/01/15 02:59:07;;;;;;;12.63;8.80;;;;;;;5.49;57.38;101478.53;144993;564;6002;-79
2022/01/15 03:01:35;;;;;;;12.35;8.98;;;;;;;5.56;57.32;101473.87;144993;627;6002;-81
2022/01/15 03:04:03;;;;;;;12.30;8.27;;;;;;;5.42;57.81;101469.53;144993;640;6002;-82
2022/01/15 03:06:30;;;;;;;11.63;8.20;;;;;;;5.31;57.92;101471.44;144993;576;6002;-80
2022/01/15 03:08:57;;;;;;;10.90;7.72;;;;;;;5.29;58.44;101473.03;144993;643;6002;-81
2022/01/15 03:11:23;;;;;;;9.95;7.47;;;;;;;5.24;58.32;101480.47;144993;597;6002;-79
2022/01/15 03:13:51;;;;;;;10.77;7.82;;;;;;;5.24;58.36;101482.16;144993;575;6002;-80
2022/01/15 03:16:20;;;;;;;12.23;7.80;;;;;;;5.30;57.66;101476.50;144993;652;6002;-80
2022/01/15 03:18:47;;;;;;;10.27;7.78;;;;;;;5.38;57.75;101472.75;144993;563;6002;-80
2022/01/15 03:21:14;;;;;;;11.25;7.45;;;;;;;5.45;57.29;101469.75;144993;616;6002;-79
2022/01/15 03:23:43;;;;;;;9.52;6.95;;;;;;;5.40;57.69;101461.72;144993;624;6002;-81
2022/01/15 03:26:13;;;;;;;10.55;7.82;;;;;;;5.53;57.28;101472.81;144993;565;6002;-80
2022/01/15 03:28:41;;;;;;;9.95;7.55;;;;;;;5.41;57.54;101466.09;144993;608;6002;-80
2022/01/15 03:31:08;;;;;;;10.63;8.00;;;;;;;5.24;58.20;101471.88;144993;596;6002;-81
2022/01/15 03:33:34;;;;;;;10.93;7.78;;;;;;;5.49;56.70;101471.72;144993;579;6002;-81
2022/01/15 03:36:01;;;;;;;10.35;7.95;;;;;;;5.45;57.11;101478.34;144993;570;6002;-80
2022/01/15 03:38:27;;;;;;;10.25;7.53;;;;;;;5.30;58.19;101477.41;144993;569;6002;-79
2022/01/15 03:40:55;;;;;;;9.52;7.22;;;;;;;5.36;57.84;101477.78;144993;594;6002;-80
2022/01/15 03:43:22;;;;;;;10.02;6.80;;;;;;;5.40;57.88;101482.31;144993;592;6002;-80
2022/01/15 03:45:49;;;;;;;8.65;7.20;;;;;;;5.33;57.62;101484.41;144993;574;6002;-80
2022/01/15 03:48:16;;;;;;;9.38;6.93;;;;;;;5.64;56.76;101482.97;144994;626;5002;-80
2022/01/15 03:50:43;;;;;;;9.38;6.35;;;;;;;5.74;56.69;101478.38;144994;575;5002;-80
2022/01/15 03:53:12;;;;;;;9.70;6.55;;;;;;;5.70;56.87;101482.47;144994;654;5002;-79
2022/01/15 03:55:43;;;;;;;8.60;6.10;;;;;;;5.59;57.27;101478.34;144994;582;5002;-80
2022/01/15 03:58:10;;;;;;;7.50;5.80;;;;;;;5.47;57.77;101483.59;144994;584;5002;-81
2022/01/15 04:00:36;;;;;;;7.90;6.47;;;;;;;5.64;57.27;101487.22;144994;584;5002;-80
2022/01/15 04:03:04;;;;;;;8.48;6.03;;;;;;;5.76;56.83;101497.41;144994;583;5002;-81
2022/01/15 04:05:31;;;;;;;7.53;5.68;;;;;;;5.76;56.66;101489.69;144994;591;5002;-80
2022/01/15 04:07:57;;;;;;;7.55;5.87;;;;;;;5.85;56.17;101516.00;144994;571;5002;-83
2022/01/15 04:10:24;;;;;;;8.35;5.35;;;;;;;5.75;56.82;101508.50;144994;603;5002;-82
2022/01/15 04:12:50;;;;;;;6.47;5.03;;;;;;;5.82;56.52;101516.72;144994;595;5002;-80
2022/01/15 04:15:18;;;;;;;8.10;5.28;;;;;;;5.86;56.43;101507.47;144994;572;5002;-80
2022/01/15 04:17:48;;;;;;;6.28;4.75;;;;;;;6.01;55.41;101512.72;144994;612;5002;-81
2022/01/15 04:20:23;;;;;;;7.03;4.70;;;;;;;6.01;55.47;101517.87;144994;605;5002;-81
2022/01/15 04:22:58;;;;;;;7.20;4.50;;;;;;;5.87;56.04;101531.56;144994;598;5002;-78
2022/01/15 04:25:30;;;;;;;9.35;5.10;;;;;;;5.84;55.56;101521.97;144998;656;5002;-80
2022/01/15 04:28:02;;;;;;;6.72;5.20;;;;;;;6.09;55.23;101519.25;144994;569;5002;-82
2022/01/15 04:30:32;;;;;;;7.18;4.97;;;;;;;6.02;55.44;101524.81;144994;580;5002;-79
2022/01/15 04:33:00;;;;;;;8.43;6.10;;;;;;;6.22;55.46;101519.97;144994;582;5002;-81
2022/01/15 04:35:33;;;;;;;9.23;6.70;;;;;;;6.42;55.15;101522.03;144994;569;5002;-81
2022/01/15 04:38:11;;;;;;;10.18;7.35;;;;;;;6.51;54.72;101520.00;144994;585;5002;-83
2022/01/15 04:40:40;;;;;;;10.10;7.15;;;;;;;6.85;54.47;101521.09;144993;632;5002;-79
2022/01/15 04:43:07;;;;;;;12.37;9.05;;;;;;;6.80;54.00;101514.78;144994;593;5002;-81
2022/01/15 04:45:33;;;;;;;12.50;9.00;;;;;;;6.93;53.70;101513.78;144994;608;5002;-80
2022/01/15 04:48:00;;;;;;;11.80;9.32;;;;;;;6.84;54.05;101516.72;144994;594;5002;-81
2022/01/15 04:50:39;;;;;;;11.70;9.20;;;;;;;6.71;53.66;101515.13;144994;584;5002;-81
2022/01/15 04:53:38;;;;;;;13.18;8.98;;;;;;;6.76;54.04;101520.56;144994;582;5002;-85
2022/01/15 04:56:07;;;;;;;14.20;10.55;;;;;;;6.68;53.76;101520.09;144994;562;5005;-81
2022/01/15 04:58:34;;;;;;;15.50;12.40;;;;;;;6.54;54.37;101532.22;144994;572;5004;-82
2022/01/15 05:01:01;;;;;;;16.35;12.32;;;;;;;6.44;54.87;101514.41;144994;581;5004;-81
2022/01/15 05:03:27;;;;;;;14.70;11.35;;;;;;;6.04;55.06;101512.91;144994;587;5004;-82
2022/01/15 05:05:54;;;;;;;16.92;12.63;;;;;;;6.33;54.89;101506.94;144994;681;5004;-82
2022/01/15 05:08:21;;;;;;;16.33;11.60;;;;;;;5.95;55.38;101507.13;144994;619;5004;-82
2022/01/15 05:10:48;;;;;;;15.13;11.60;;;;;;;5.97;55.45;101505.59;144994;584;5004;-82
2022/01/15 05:13:16;;;;;;;13.02;9.82;;;;;;;5.82;55.75;101508.06;144994;624;5004;-80
2022/01/15 05:15:43;;;;;;;13.07;10.07;;;;;;;5.93;55.80;101508.75;144993;592;5004;-81
2022/01/15 05:18:10;;;;;;;13.30;9.70;;;;;;;5.95;55.30;101510.63;144994;612;5002;-81
2022/01/15 05:20:43;;;;;;;13.93;10.23;;;;;;;6.07;55.24;101538.87;144994;581;5002;-81
2022/01/15 05:23:09;;;;;;;13.23;9.73;;;;;;;6.05;54.55;101550.78;144994;585;5002;-80
2022/01/15 05:25:36;;;;;;;14.87;9.93;;;;;;;5.90;54.90;101552.37;144994;577;5002;-80
2022/01/15 05:28:03;;;;;;;13.70;9.30;;;;;;;5.78;55.80;101568.84;144994;599;5002;-80
2022/01/15 05:30:33;;;;;;;11.68;8.65;;;;;;;5.74;54.90;101569.47;144994;595;5002;-81
2022/01/15 05:32:59;;;;;;;12.57;9.85;;;;;;;5.91;54.87;101561.88;144994;571;5002;-80
2022/01/15 05:35:27;;;;;;;13.62;9.82;;;;;;;6.01;54.46;101566.84;144994;626;5002;-82
2022/01/15 05:37:55;;;;;;;14.18;10.32;;;;;;;5.80;55.60;101577.56;144994;569;5002;-80
2022/01/15 05:40:22;;;;;;;14.40;10.52;;;;;;;6.03;54.42;101579.81;144994;569;5002;-81
2022/01/15 05:42:48;;;;;;;14.30;9.98;;;;;;;5.99;54.47;101578.75;144994;570;5002;-80
2022/01/15 05:45:15;;;;;;;12.55;8.55;;;;;;;5.70;55.34;101582.94;144994;633;5002;-80
2022/01/15 05:47:42;;;;;;;12.10;8.20;;;;;;;5.65;55.74;101584.34;144994;623;5002;-79
2022/01/15 05:50:09;;;;;;;11.18;7.75;;;;;;;5.60;55.59;101583.16;144994;656;5002;-80
2022/01/15 05:52:37;;;;;;;11.48;8.40;;;;;;;5.60;55.66;101570.28;144994;581;5002;-79
2022/01/15 05:55:05;;;;;;;11.65;8.27;;;;;;;5.91;54.85;101579.94;144994;592;5002;-80
2022/01/15 05:57:31;;;;;;;12.88;8.57;;;;;;;5.78;55.98;101579.16;144994;570;5002;-80
2022/01/15 05:59:58;;;;;;;11.27;8.27;;;;;;;5.79;55.67;101593.81;144994;611;5002;-80
2022/01/15 06:02:25;;;;;;;9.50;7.37;;;;;;;5.84;55.75;101583.81;144994;596;5002;-80
2022/01/15 06:04:51;;;;;;;15.20;7.78;;;;;;;5.81;55.82;101591.34;144994;576;5002;-79
2022/01/15 06:07:18;;;;;;;11.43;7.22;;;;;;;6.13;54.91;101619.16;144994;591;5002;-81
2022/01/15 06:09:44;;;;;;;10.52;7.35;;;;;;;6.24;54.99;101601.78;144994;606;5002;-80
2022/01/15 06:12:11;;;;;;;9.35;6.32;;;;;;;6.22;56.21;101616.28;144994;633;5002;-80
2022/01/15 06:14:38;;;;;;;10.82;6.90;;;;;;;6.43;55.84;101618.38;144994;631;5002;-81
2022/01/15 06:17:06;;;;;;;9.30;6.45;;;;;;;6.58;55.91;101616.72;144994;647;5002;-80
2022/01/15 06:19:32;;;;;;;8.63;6.28;;;;;;;6.54;56.88;101643.16;144994;566;5002;-78
2022/01/15 06:21:59;;;;;;;10.48;6.57;;;;;;;7.02;54.76;101633.09;144994;598;5002;-79
2022/01/15 06:24:26;;;;;;;9.23;6.60;;;;;;;7.35;54.49;101659.97;144994;575;5002;-80
2022/01/15 06:27:11;;;;;;;10.73;6.60;;;;;;;7.71;54.06;101636.13;144994;585;5002;-79
2022/01/15 06:30:06;;;;;;;11.93;6.40;;;;;;;8.30;53.22;101638.53;144994;577;5002;-78
2022/01/15 06:32:36;;;;;;;12.18;5.65;;;;;;;9.22;52.30;101659.69;144994;565;5011;-79
2022/01/15 06:35:13;;;;;;;7.60;6.12;;;;;;;10.09;51.02;101657.84;144994;590;5002;-79
2022/01/15 06:37:40;;;;;;;9.15;6.18;;;;;;;11.08;49.86;101662.25;144994;687;5002;-80
2022/01/15 06:40:07;;;;;;;9.52;5.90;;;;;;;12.21;47.51;101656.41;144994;563;5002;-80
2022/01/15 06:42:35;;;;;;;8.30;4.95;;;;;;;12.74;43.78;101665.31;144994;603;5002;-81
2022/01/15 06:45:02;;;;;;;9.48;5.70;;;;;;;13.15;45.95;101671.09;144994;580;5002;-79
2022/01/15 06:47:28;;;;;;;9.50;5.47;;;;;;;13.44;46.04;101666.00;144994;565;5002;-79
2022/01/15 06:49:55;;;;;;;7.10;5.10;;;;;;;13.65;46.10;101681.50;144994;594;5002;-80
2022/01/15 06:52:24;;;;;;;7.12;4.25;;;;;;;13.54;46.97;101680.25;144994;564;5002;-79
2022/01/15 06:54:50;;;;;;;9.88;5.00;;;;;;;13.59;47.72;101689.12;144994;616;5002;-80
2022/01/15 06:57:17;;;;;;;10.43;6.87;;;;;;;13.30;47.56;101693.31;144993;571;5002;-80
2022/01/15 06:59:46;;;;;;;8.80;6.45;;;;;;;13.12;47.97;101696.19;144994;581;5002;-79
2022/01/15 07:02:12;;;;;;;9.57;6.45;;;;;;;13.10;48.39;101698.72;144994;622;5002;-81
2022/01/15 07:04:41;;;;;;;8.15;5.65;;;;;;;12.54;45.77;101687.16;144994;588;5002;-80
2022/01/15 07:07:08;;;;;;;11.38;7.12;;;;;;;12.66;48.23;101722.38;144994;582;5002;-80
2022/01/15 07:09:35;;;;;;;8.63;4.35;;;;;;;11.47;48.03;101692.47;144994;569;5002;-80
2022/01/15 07:12:03;;;;;;;7.70;3.83;;;;;;;11.23;46.96;101688.91;144994;589;5002;-80
2022/01/15 07:14:29;;;;;;;11.95;2.10;;;;;;;11.38;47.36;101717.25;144994;594;5002;-79
2022/01/15 07:16:56;;;;;;;3.83;2.50;;;;;;;11.83;47.77;101700.88;144994;572;5002;-80
2022/01/15 07:19:22;;;;;;;5.68;3.53;;;;;;;11.94;47.55;101677.94;144994;664;5002;-80
2022/01/15 07:21:49;;;;;;;4.20;3.00;;;;;;;11.80;47.94;101719.88;144994;600;5002;-80
2022/01/15 07:24:16;;;;;;;5.05;2.55;;;;;;;11.88;47.83;101715.00;144994;578;5002;-80
2022/01/15 07:26:43;;;;;;;3.00;2.22;;;;;;;12.01;47.64;101702.47;144994;583;5002;-79
2022/01/15 07:29:15;;;;;;;5.55;2.85;;;;;;;12.38;47.02;101720.44;144994;591;5002;-80
2022/01/15 07:31:42;;;;;;;3.62;3.15;;;;;;;12.64;47.47;101723.12;144994;563;5002;-79
2022/01/15 07:34:09;;;;;;;4.10;2.28;;;;;;;12.15;46.73;101699.59;144994;597;5002;-79
2022/01/15 07:36:36;;;;;;;4.75;3.65;;;;;;;12.30;48.15;101738.34;144994;604;5002;-79
2022/01/15 07:39:04;;;;;;;4.50;4.00;;;;;;;12.44;47.99;101731.09;144994;563;5002;-78
2022/01/15 07:41:31;;;;;;;5.68;4.80;;;;;;;12.38;48.97;101698.72;144994;708;5002;-80
2022/01/15 07:44:10;;;;;;;4.93;3.25;;;;;;;11.75;48.64;101720.50;144994;743;5002;-79
2022/01/15 07:46:54;;;;;;;7.70;4.47;;;;;;;12.47;48.83;101754.66;144994;715;5002;-79
2022/01/15 07:49:36;;;;;;;5.25;2.97;;;;;;;12.23;46.96;101738.94;144994;566;5002;-80
2022/01/15 07:52:03;;;;;;;4.30;2.00;;;;;;;12.90;46.07;101744.94;144994;579;5002;-80
2022/01/15 07:54:30;;;;;;;3.42;2.10;;;;;;;12.93;44.46;101772.81;144994;582;5002;-78
2022/01/15 07:56:58;;;;;;;5.47;1.80;;;;;;;13.00;45.29;101767.91;144994;603;5002;-80
2022/01/15 07:59:30;;;;;;;4.85;3.00;;;;;;;13.07;45.04;101777.72;144994;649;5002;-80
2022/01/15 08:01:58;;;;;;;2.80;2.15;;;;;;;13.20;44.24;101728.63;144994;581;5002;-80
2022/01/15 08:04:24;;;;;;;2.62;1.80;;;;;;;13.36;43.48;101743.09;144994;624;5002;-80
2022/01/15 08:06:51;;;;;;;3.97;2.87;;;;;;;13.33;45.80;101756.94;144994;586;5002;-78
2022/01/15 08:09:17;;;;;;;4.95;3.70;;;;;;;14.02;45.13;101768.81;144994;590;5002;-78
2022/01/15 08:11:44;;;;;;;4.03;3.00;;;;;;;14.02;44.72;101770.53;144994;593;5002;-80
2022/01/15 08:14:10;;;;;;;4.80;3.33;;;;;;;14.34;45.06;101771.56;144994;593;5002;-78
2022/01/15 08:16:37;;;;;;;4.25;2.50;;;;;;;14.42;44.31;101777.91;144994;591;5002;-79
2022/01/15 08:19:16;;;;;;;3.53;1.77;;;;;;;14.65;43.75;101798.63;144994;616;5002;-79
2022/01/15 08:21:46;;;;;;;4.32;2.67;;;;;;;14.97;43.78;101796.09;144993;571;4567;-80
2022/01/15 08:24:13;;;;;;;5.03;2.60;;;;;;;14.27;44.54;101786.16;144994;585;4572;-80
2022/01/15 08:26:39;;;;;;;6.70;4.40;;;;;;;14.71;44.13;101811.91;144994;599;4582;-80
2022/01/15 08:29:06;;;;;;;2.78;2.20;;;;;;;14.52;42.60;101774.75;144992;777;6002;-80
2022/01/15 08:31:32;;;;;;;1.80;1.50;;;;;;;14.73;42.87;101789.31;144992;588;6002;-80
2022/01/15 08:34:00;;;;;;;2.28;1.70;;;;;;;14.67;42.88;101796.97;144992;565;6002;-81
2022/01/15 08:36:27;;;;;;;2.35;1.80;;;;;;;15.14;41.56;101814.88;144992;627;6002;-78
2022/01/15 08:38:54;;;;;;;2.80;1.10;;;;;;;15.14;41.07;101787.00;144992;575;6002;-79
2022/01/15 08:41:25;;;;;;;3.22;1.45;;;;;;;15.13;40.25;101790.47;144992;607;6002;-80
2022/01/15 08:43:51;;;;;;;2.53;1.65;;;;;;;15.12;39.03;101772.13;144992;639;6002;-79
2022/01/15 08:46:19;;;;;;;3.83;2.50;;;;;;;15.45;41.43;101789.59;144992;598;6002;-79
2022/01/15 08:48:46;;;;;;;4.05;1.90;;;;;;;15.80;41.40;101798.38;144992;791;6002;-81
2022/01/15 08:51:13;;;;;;;4.57;2.12;;;;;;;16.11;39.96;101804.38;144992;606;6002;-78
2022/01/15 08:53:41;;;;;;;3.40;2.40;;;;;;;16.20;41.50;101799.37;144992;582;6002;-80
2022/01/15 08:56:08;;;;;;;3.22;2.00;;;;;;;15.84;41.37;101813.31;144992;604;6002;-80
2022/01/15 08:58:35;;;;;;;3.92;2.17;;;;;;;16.09;41.93;101819.19;144992;595;6002;-79
2022/01/15 09:01:02;;;;;;;5.97;3.22;;;;;;;16.45;42.03;101826.16;144992;609;6002;-79
2022/01/15 09:03:29;;;;;;;3.95;3.03;;;;;;;16.81;41.53;101833.97;144992;638;6002;-80
2022/01/15 09:05:55;;;;;;;6.10;3.28;;;;;;;17.12;41.95;101821.53;144992;586;6002;-80
2022/01/15 09:08:24;;;;;;;5.90;3.70;;;;;;;17.22;39.52;101822.59;144992;593;6002;-79
2022/01/15 09:10:54;;;;;;;3.97;3.40;;;;;;;17.51;41.60;101817.00;144992;585;6002;-80
2022/01/15 09:13:21;;;;;;;5.28;3.50;;;;;;;17.40;41.18;101816.81;144992;633;6002;-78
2022/01/15 09:15:50;;;;;;;4.18;2.60;;;;;;;17.59;41.39;101812.78;144992;569;6002;-78
2022/01/15 09:18:17;;;;;;;3.70;2.90;;;;;;;17.75;40.56;101814.84;144991;581;6002;-78
2022/01/15 09:20:44;;;;;;;3.85;3.20;;;;;;;17.16;35.93;101809.34;144992;582;6002;-81
2022/01/15 09:23:12;;;;;;;4.90;2.83;;;;;;;17.38;39.32;101824.66;144992;571;6002;-79
2022/01/15 09:25:39;;;;;;;3.20;2.30;;;;;;;17.70;40.22;101821.72;144992;578;6002;-78
2022/01/15 09:30:50;;;;;;;;;;;;;;;17.32;37.05;101826.28;144997;907;6004;-78
2022/01/15 09:33:16;;;;;;;4.00;1.98;;;;;;;17.49;36.64;101821.34;144997;574;6002;-79
2022/01/15 09:35:43;;;;;;;2.67;1.85;;;;;;;17.73;38.74;101827.03;144992;624;6002;-82
2022/01/15 09:38:10;;;;;;;3.70;2.35;;;;;;;17.98;39.84;101824.00;144992;672;6002;-79
2022/01/15 09:40:40;;;;;;;4.30;2.42;;;;;;;18.24;39.43;101820.03;144992;592;6002;-79
2022/01/15 09:43:08;;;;;;;3.78;2.50;;;;;;;18.47;39.50;101824.78;144992;668;6002;-81
2022/01/15 09:45:36;;;;;;;3.40;2.25;;;;;;;18.74;38.86;101812.87;144992;565;6002;-78
2022/01/15 09:48:05;;;;;;;9.82;6.60;;;;;;;18.82;38.37;101809.50;144992;579;6002;-80
2022/01/15 09:50:35;;;;;;;11.07;7.25;;;;;;;18.75;35.87;101809.37;144992;602;6002;-81
2022/01/15 09:53:02;;;;;;;6.40;4.30;;;;;;;18.67;38.10;101809.28;144991;651;6002;-81
2022/01/15 09:55:30;;;;;;;5.32;3.10;;;;;;;18.70;38.01;101792.66;144992;575;6002;-80
2022/01/15 09:57:57;;;;;;;4.80;2.90;;;;;;;18.73;37.88;101792.72;144992;582;6002;-80
2022/01/15 10:00:27;;;;;;;3.97;3.12;;;;;;;18.82;37.96;101784.94;144992;705;6002;-80
2022/01/15 10:02:54;;;;;;;7.18;3.50;;;;;;;18.89;36.43;101783.28;144992;580;6002;-80
2022/01/15 10:05:21;;;;;;;4.18;2.75;;;;;;;19.07;37.52;101772.09;144992;563;6002;-79
2022/01/15 10:08:12;;;;;;;6.65;5.85;;;;;;;18.90;36.78;101787.69;144992;596;6002;-81
2022/01/15 10:10:48;;;;;;;4.35;2.62;;;;;;;18.60;37.22;101782.00;144992;581;6002;-81
2022/01/15 10:13:23;;;;;;;5.55;4.43;;;;;;;18.56;36.98;101787.22;144992;563;6002;-80
2022/01/15 10:16:22;;;;;;;2.47;1.77;;;;;;;18.54;36.84;101791.56;144992;574;6002;-81
2022/01/15 10:18:48;;;;;;;5.55;3.70;;;;;;;18.42;37.57;101800.16;144992;590;6004;-80
2022/01/15 10:21:29;;;;;;;5.62;4.05;;;;;;;18.41;37.69;101801.91;144992;585;6004;-79
2022/01/15 10:23:58;;;;;;;3.85;2.58;;;;;;;18.51;38.18;101791.53;144992;563;6004;-80
2022/01/15 10:26:34;;;;;;;2.95;2.10;;;;;;;18.23;37.42;101791.09;144992;660;6004;-79
2022/01/15 10:29:06;;;;;;;2.35;1.60;;;;;;;18.07;37.39;101782.09;144992;665;6004;-80
2022/01/15 10:31:44;;;;;;;4.45;2.00;;;;;;;17.91;37.56;101791.47;144992;674;6004;-81
2022/01/15 10:34:29;;;;;;;3.20;2.12;;;;;;;17.99;37.21;101797.78;144992;662;6004;-79
2022/01/15 10:37:12;;;;;;;2.95;2.15;;;;;;;17.01;35.77;101795.06;144992;588;6004;-80
2022/01/15 10:40:25;;;;;;;;;;;;;;;;;;;;;
2022/01/15 10:43:09;;;;;;;5.72;1.98;;;;;;;16.53;38.88;101790.53;144991;576;6000;-79
2022/01/15 10:45:55;;;;;;;3.58;1.80;;;;;;;16.09;38.94;101793.00;144992;585;6002;-79
2022/01/15 10:48:27;;;;;;;3.35;2.25;;;;;;;16.46;38.91;101792.13;144992;587;6002;-80
2022/01/15 10:51:01;;;;;;;2.72;2.00;;;;;;;16.56;37.97;101790.59;144992;661;6002;-81
2022/01/15 10:53:46;;;;;;;4.65;2.50;;;;;;;16.25;38.87;101797.72;144992;563;6002;-80
2022/01/15 10:56:15;;;;;;;7.17;2.30;;;;;;;16.23;38.55;101809.03;144992;744;6002;-81
2022/01/15 10:58:42;;;;;;;3.58;2.30;;;;;;;16.67;39.09;101791.72;144992;586;6002;-79
2022/01/15 11:01:13;;;;;;;3.40;2.35;;;;;;;15.96;39.83;101792.69;144992;591;6003;-80
2022/01/15 11:03:48;;;;;;;3.97;2.22;;;;;;;15.76;39.96;101796.50;144992;566;6002;-78
2022/01/15 11:06:38;;;;;;;4.07;2.22;;;;;;;15.49;40.70;101791.44;144992;564;6002;-80
2022/01/15 11:09:04;;;;;;;4.72;2.47;;;;;;;15.49;41.18;101801.91;144992;565;6003;-77
2022/01/15 11:11:32;;;;;;;4.75;2.42;;;;;;;15.19;41.71;101813.28;144992;699;6002;-79
2022/01/15 11:14:03;;;;;;;5.37;2.17;;;;;;;14.86;41.69;101806.25;144991;569;6002;-80
2022/01/15 11:16:31;;;;;;;4.45;2.10;;;;;;;14.98;42.41;101816.16;144992;595;6002;-81
2022/01/15 11:18:59;;;;;;;3.58;2.53;;;;;;;14.60;42.47;101810.69;144992;584;6002;-78
2022/01/15 11:21:29;;;;;;;3.92;2.10;;;;;;;14.46;41.92;101794.53;144992;563;6002;-80
2022/01/15 11:24:02;;;;;;;2.72;2.00;;;;;;;14.17;42.22;101797.13;144992;613;6002;-81
2022/01/15 11:26:31;;;;;;;3.55;2.00;;;;;;;14.21;42.48;101798.12;144992;598;6002;-80
2022/01/15 11:28:59;;;;;;;4.25;2.20;;;;;;;14.50;42.26;101793.81;144992;573;6002;-80
2022/01/15 11:31:34;;;;;;;3.62;2.47;;;;;;;14.22;42.77;101784.22;144992;651;6002;-79
2022/01/15 11:34:02;;;;;;;3.12;2.55;;;;;;;14.23;42.65;101792.09;144992;715;6002;-79
2022/01/15 11:36:39;;;;;;;3.62;2.00;;;;;;;14.30;42.22;101774.91;144992;576;6002;-80
2022/01/15 11:39:13;;;;;;;4.85;2.40;;;;;;;14.18;42.64;101777.16;144992;577;6002;-80
2022/01/15 11:41:44;;;;;;;4.65;2.28;;;;;;;14.35;42.87;101775.94;144992;571;6002;-79
2022/01/15 11:44:18;;;;;;;4.50;2.22;;;;;;;14.40;42.66;101776.97;144992;609;6002;-80
2022/01/15 11:46:50;;;;;;;7.57;2.50;;;;;;;14.37;42.87;101766.44;144992;600;6002;-80
2022/01/15 11:49:37;;;;;;;4.78;2.47;;;;;;;14.49;42.92;101756.34;144992;577;6002;-80
2022/01/15 11:52:35;;;;;;;2.75;2.20;;;;;;;14.72;42.58;101758.78;144992;594;6002;-80
2022/01/15 11:55:12;;;;;;;5.70;2.30;;;;;;;14.31;42.78;101759.28;144992;574;6004;-79
2022/01/15 11:57:47;;;;;;;5.78;2.50;;;;;;;14.02;43.76;101758.38;144992;564;6004;-81
2022/01/15 12:00:38;;;;;;;4.00;2.60;;;;;;;14.01;43.38;101753.09;144992;568;6004;-79
2022/01/15 12:03:09;;;;;;;3.75;2.55;;;;;;;14.26;43.79;101770.44;144992;652;6004;-81
2022/01/15 12:05:37;;;;;;;4.82;3.03;;;;;;;14.22;43.68;101771.16;144992;594;6004;-78
2022/01/15 12:08:24;;;;;;;3.53;2.45;;;;;;;14.39;44.11;101771.69;144992;595;6005;-79
2022/01/15 12:10:55;;;;;;;4.37;2.55;;;;;;;14.65;43.40;101764.66;144992;585;6002;-81
2022/01/15 12:13:27;;;;;;;4.07;1.98;;;;;;;14.65;43.17;101764.66;144992;575;6002;-79